createdAt,value
2022-12-26T00:00:27.741Z,50.902370
2022-12-26T00:01:27.719Z,50.902409
2022-12-26T00:02:27.792Z,50.902420
2022-12-26T00:03:27.763Z,50.902405
2022-12-26T00:04:50.023Z,50.902378
2022-12-26T00:05:28.655Z,50.902420
2022-12-26T00:06:27.675Z,50.902405
2022-12-26T00:07:27.634Z,50.902401
2022-12-26T00:08:27.639Z,50.902378
2022-12-26T00:09:27.625Z,50.902332
2022-12-26T00:10:27.611Z,50.902328
2022-12-26T00:11:27.642Z,50.902367
2022-12-26T00:12:27.596Z,50.902409
2022-12-26T00:13:39.621Z,50.902420
2022-12-26T00:14:28.661Z,50.902386
2022-12-26T00:15:27.571Z,50.902420
2022-12-26T00:16:27.658Z,50.902431
2022-12-26T00:17:27.572Z,50.902412
2022-12-26T00:18:27.560Z,50.902443
2022-12-26T00:19:27.551Z,50.902443
2022-12-26T00:20:27.534Z,50.902435
2022-12-26T00:21:27.554Z,50.902405
2022-12-26T00:22:27.520Z,50.902378
2022-12-26T00:23:27.510Z,50.902393
2022-12-26T00:24:27.570Z,50.902386
2022-12-26T00:25:27.523Z,50.902374
2022-12-26T00:26:27.486Z,50.902401
2022-12-26T00:27:27.527Z,50.902420
2022-12-26T00:28:27.498Z,50.902454
2022-12-26T00:29:27.508Z,50.902431
2022-12-26T00:30:27.464Z,50.902397
2022-12-26T00:31:27.526Z,50.902397
2022-12-26T00:32:27.469Z,50.902382
2022-12-26T00:33:27.437Z,50.902386
2022-12-26T00:34:28.433Z,50.902397
2022-12-26T00:35:27.431Z,50.902409
2022-12-26T00:36:27.474Z,50.902431
2022-12-26T00:37:27.444Z,50.902420
2022-12-26T00:38:27.399Z,50.902397
2022-12-26T00:39:27.443Z,50.902401
2022-12-26T00:40:27.398Z,50.902416
2022-12-26T00:41:27.401Z,50.902401
2022-12-26T00:42:27.400Z,50.902393
2022-12-26T00:43:27.388Z,50.902401
2022-12-26T00:44:27.360Z,50.902401
2022-12-26T00:45:27.352Z,50.902397
2022-12-26T00:46:27.417Z,50.902378
2022-12-26T00:47:27.356Z,50.902405
2022-12-26T00:48:27.331Z,50.902386
2022-12-26T00:49:28.256Z,50.902401
2022-12-26T00:50:34.214Z,50.902466
2022-12-26T00:51:29.303Z,50.902451
2022-12-26T00:52:27.329Z,50.902397
2022-12-26T00:53:27.290Z,50.902393
2022-12-26T00:54:27.348Z,50.902401
2022-12-26T00:55:27.275Z,50.902397
2022-12-26T00:56:27.261Z,50.902390
2022-12-26T00:57:28.293Z,50.902401
2022-12-26T00:58:27.258Z,50.902409
2022-12-26T00:59:27.295Z,50.902401
2022-12-26T01:00:27.232Z,50.902378
2022-12-26T01:01:27.307Z,50.902359
2022-12-26T01:02:27.361Z,50.902363
2022-12-26T01:03:27.244Z,50.902374
2022-12-26T01:04:27.332Z,50.902359
2022-12-26T01:05:27.225Z,50.902355
2022-12-26T01:06:27.194Z,50.902401
2022-12-26T01:07:27.236Z,50.902386
2022-12-26T01:08:27.169Z,50.902393
2022-12-26T01:09:27.257Z,50.902374
2022-12-26T01:10:27.169Z,50.902355
2022-12-26T01:11:27.158Z,50.902374
2022-12-26T01:12:27.171Z,50.902378
2022-12-26T01:13:27.126Z,50.902390
2022-12-26T01:14:27.357Z,50.902397
2022-12-26T01:15:27.118Z,50.902397
2022-12-26T01:16:27.138Z,50.902378
2022-12-26T01:17:27.153Z,50.902386
2022-12-26T01:18:27.108Z,50.902401
2022-12-26T01:19:28.087Z,50.902390
2022-12-26T01:20:27.099Z,50.902382
2022-12-26T01:21:27.070Z,50.902401
2022-12-26T01:22:27.066Z,50.902397
2022-12-26T01:23:27.083Z,50.902378
2022-12-26T01:24:27.079Z,50.902390
2022-12-26T01:25:27.061Z,50.902348
2022-12-26T01:26:28.047Z,50.902367
2022-12-26T01:27:27.028Z,50.902409
2022-12-26T01:28:27.058Z,50.902397
2022-12-26T01:29:27.020Z,50.902397
2022-12-26T01:30:27.016Z,50.902416
2022-12-26T01:31:27.061Z,50.902386
2022-12-26T01:32:26.977Z,50.902328
2022-12-26T01:33:28.008Z,50.902386
2022-12-26T01:34:26.977Z,50.902390
2022-12-26T01:35:26.968Z,50.902397
2022-12-26T01:36:26.963Z,50.902370
2022-12-26T01:37:26.951Z,50.902405
2022-12-26T01:38:26.998Z,50.902378
2022-12-26T01:39:26.948Z,50.902370
2022-12-26T01:40:26.943Z,50.902370
2022-12-26T01:41:26.939Z,50.902359
2022-12-26T01:42:26.923Z,50.902382
2022-12-26T01:43:26.941Z,50.902390
2022-12-26T01:44:26.916Z,50.902420
2022-12-26T01:45:26.925Z,50.902424
2022-12-26T01:46:26.950Z,50.902370
2022-12-26T01:47:26.872Z,50.902447
2022-12-26T01:48:27.901Z,50.902382
2022-12-26T01:49:26.895Z,50.902405
2022-12-26T01:50:26.853Z,50.902382
2022-12-26T01:51:26.978Z,50.902424
2022-12-26T01:52:26.846Z,50.902401
2022-12-26T01:53:26.859Z,50.902393
2022-12-26T01:54:39.201Z,50.902409
2022-12-26T01:55:27.820Z,50.902382
2022-12-26T01:56:26.811Z,50.902382
2022-12-26T01:57:26.805Z,50.902393
2022-12-26T01:58:26.820Z,50.902420
2022-12-26T01:59:26.805Z,50.902451
2022-12-26T02:00:26.773Z,50.902409
2022-12-26T02:01:26.840Z,50.902378
2022-12-26T02:02:26.917Z,50.902386
2022-12-26T02:03:27.915Z,50.902390
2022-12-26T02:04:26.758Z,50.902401
2022-12-26T02:05:26.748Z,50.902393
2022-12-26T02:06:26.745Z,50.902344
2022-12-26T02:07:26.745Z,50.902370
2022-12-26T02:08:26.758Z,50.902374
2022-12-26T02:09:26.732Z,50.902397
2022-12-26T02:10:26.706Z,50.902367
2022-12-26T02:11:26.703Z,50.902367
2022-12-26T02:12:35.259Z,50.902405
2022-12-26T02:13:27.708Z,50.902435
2022-12-26T02:14:26.721Z,50.902401
2022-12-26T02:15:26.684Z,50.902405
2022-12-26T02:16:26.676Z,50.902374
2022-12-26T02:17:26.656Z,50.902355
2022-12-26T02:18:26.647Z,50.902374
2022-12-26T02:19:26.686Z,50.902401
2022-12-26T02:20:26.643Z,50.902416
2022-12-26T02:21:26.625Z,50.902435
2022-12-26T02:22:26.622Z,50.902431
2022-12-26T02:23:26.615Z,50.902451
2022-12-26T02:24:26.635Z,50.902431
2022-12-26T02:25:26.612Z,50.902401
2022-12-26T02:26:26.606Z,50.902393
2022-12-26T02:27:26.586Z,50.902390
2022-12-26T02:28:26.580Z,50.902397
2022-12-26T02:29:26.641Z,50.902412
2022-12-26T02:30:26.558Z,50.902386
2022-12-26T02:31:26.615Z,50.902401
2022-12-26T02:32:27.545Z,50.902416
2022-12-26T02:33:26.548Z,50.902405
2022-12-26T02:34:26.557Z,50.902397
2022-12-26T02:35:26.520Z,50.902397
2022-12-26T02:36:26.510Z,50.902390
2022-12-26T02:37:26.510Z,50.902370
2022-12-26T02:38:26.523Z,50.902397
2022-12-26T02:39:45.702Z,50.902386
2022-12-26T02:40:27.484Z,50.902393
2022-12-26T02:41:26.474Z,50.902393
2022-12-26T02:42:26.491Z,50.902382
2022-12-26T02:43:26.472Z,50.902401
2022-12-26T02:44:26.475Z,50.902420
2022-12-26T02:45:26.468Z,50.902431
2022-12-26T02:46:26.490Z,50.902428
2022-12-26T02:47:26.442Z,50.902401
2022-12-26T02:48:26.454Z,50.902405
2022-12-26T02:49:26.420Z,50.902431
2022-12-26T02:50:26.421Z,50.902431
2022-12-26T02:51:26.403Z,50.902405
2022-12-26T02:52:26.388Z,50.902409
2022-12-26T02:53:26.420Z,50.902374
2022-12-26T02:54:26.375Z,50.902382
2022-12-26T02:55:26.369Z,50.902424
2022-12-26T02:56:26.371Z,50.902416
2022-12-26T02:57:26.347Z,50.902412
2022-12-26T02:58:26.384Z,50.902409
2022-12-26T02:59:56.490Z,50.902416
2022-12-26T03:00:27.317Z,50.902374
2022-12-26T03:01:26.401Z,50.902443
2022-12-26T03:02:26.494Z,50.902390
2022-12-26T03:03:26.380Z,50.902390
2022-12-26T03:04:26.311Z,50.902412
2022-12-26T03:05:26.298Z,50.902397
2022-12-26T03:06:26.289Z,50.902443
2022-12-26T03:07:26.273Z,50.902390
2022-12-26T03:08:26.270Z,50.902397
2022-12-26T03:09:26.300Z,50.902374
2022-12-26T03:10:26.255Z,50.902420
2022-12-26T03:11:26.255Z,50.902431
2022-12-26T03:12:26.253Z,50.902359
2022-12-26T03:13:26.239Z,50.902374
2022-12-26T03:14:26.250Z,50.902367
2022-12-26T03:15:26.220Z,50.902370
2022-12-26T03:16:26.251Z,50.902420
2022-12-26T03:17:26.215Z,50.902428
2022-12-26T03:18:57.704Z,50.902462
2022-12-26T03:19:27.226Z,50.902416
2022-12-26T03:20:26.176Z,50.902390
2022-12-26T03:21:26.175Z,50.902428
2022-12-26T03:22:26.171Z,50.902367
2022-12-26T03:23:26.166Z,50.902435
2022-12-26T03:24:26.179Z,50.902454
2022-12-26T03:25:26.142Z,50.902428
2022-12-26T03:26:26.178Z,50.902393
2022-12-26T03:27:26.136Z,50.902393
2022-12-26T03:28:26.119Z,50.902447
2022-12-26T03:29:26.153Z,50.902416
2022-12-26T03:30:26.142Z,50.902473
2022-12-26T03:31:26.093Z,50.902428
2022-12-26T03:32:26.092Z,50.902439
2022-12-26T03:33:26.086Z,50.902424
2022-12-26T03:34:26.118Z,50.902451
2022-12-26T03:35:26.067Z,50.902451
2022-12-26T03:36:26.066Z,50.902447
2022-12-26T03:37:26.056Z,50.902473
2022-12-26T03:38:27.053Z,50.902466
2022-12-26T03:39:26.085Z,50.902470
2022-12-26T03:40:26.039Z,50.902447
2022-12-26T03:41:26.017Z,50.902477
2022-12-26T03:42:26.018Z,50.902454
2022-12-26T03:43:26.019Z,50.902485
2022-12-26T03:44:26.059Z,50.902439
2022-12-26T03:45:26.011Z,50.902447
2022-12-26T03:46:26.057Z,50.902401
2022-12-26T03:47:25.995Z,50.902409
2022-12-26T03:48:25.977Z,50.902424
2022-12-26T03:49:25.966Z,50.902435
2022-12-26T03:50:25.983Z,50.902420
2022-12-26T03:51:25.950Z,50.902416
2022-12-26T03:52:25.948Z,50.902416
2022-12-26T03:53:25.956Z,50.902386
2022-12-26T03:54:25.926Z,50.902412
2022-12-26T03:55:25.973Z,50.902435
2022-12-26T03:56:25.902Z,50.902435
2022-12-26T03:57:25.901Z,50.902431
2022-12-26T03:58:25.888Z,50.902454
2022-12-26T03:59:25.929Z,50.902451
2022-12-26T04:00:59.400Z,50.902451
2022-12-26T04:01:26.004Z,50.902435
2022-12-26T04:02:26.007Z,50.902454
2022-12-26T04:03:25.876Z,50.902447
2022-12-26T04:04:25.851Z,50.902435
2022-12-26T04:05:25.894Z,50.902431
2022-12-26T04:06:25.848Z,50.902435
2022-12-26T04:07:25.858Z,50.902431
2022-12-26T04:08:25.844Z,50.902451
2022-12-26T04:09:25.818Z,50.902435
2022-12-26T04:10:25.839Z,50.902431
2022-12-26T04:11:25.866Z,50.902424
2022-12-26T04:12:25.810Z,50.902424
2022-12-26T04:13:25.806Z,50.902435
2022-12-26T04:14:25.808Z,50.902443
2022-12-26T04:15:25.872Z,50.902431
2022-12-26T04:16:25.797Z,50.902451
2022-12-26T04:17:25.757Z,50.902439
2022-12-26T04:18:25.755Z,50.902424
2022-12-26T04:19:25.770Z,50.902435
2022-12-26T04:20:25.793Z,50.902451
2022-12-26T04:21:25.732Z,50.902431
2022-12-26T04:22:25.736Z,50.902447
2022-12-26T04:23:25.731Z,50.902447
2022-12-26T04:24:25.716Z,50.902443
2022-12-26T04:25:50.519Z,50.902447
2022-12-26T04:26:26.702Z,50.902435
2022-12-26T04:27:25.692Z,50.902420
2022-12-26T04:28:25.706Z,50.902416
2022-12-26T04:29:25.689Z,50.902409
2022-12-26T04:30:25.692Z,50.902424
2022-12-26T04:31:25.740Z,50.902416
2022-12-26T04:32:25.671Z,50.902428
2022-12-26T04:33:25.649Z,50.902412
2022-12-26T04:34:25.684Z,50.902424
2022-12-26T04:35:25.673Z,50.902409
2022-12-26T04:36:25.627Z,50.902405
2022-12-26T04:37:25.629Z,50.902420
2022-12-26T04:38:25.611Z,50.902401
2022-12-26T04:39:25.626Z,50.902412
2022-12-26T04:40:25.634Z,50.902420
2022-12-26T04:41:25.615Z,50.902420
2022-12-26T04:42:25.580Z,50.902412
2022-12-26T04:43:47.225Z,50.902420
2022-12-26T04:44:26.580Z,50.902401
2022-12-26T04:45:25.579Z,50.902401
2022-12-26T04:46:25.614Z,50.902428
2022-12-26T04:47:25.573Z,50.902431
2022-12-26T04:48:25.539Z,50.902424
2022-12-26T04:49:25.528Z,50.902416
2022-12-26T04:50:25.524Z,50.902428
2022-12-26T04:51:25.544Z,50.902409
2022-12-26T04:52:25.511Z,50.902409
2022-12-26T04:53:25.530Z,50.902393
2022-12-26T04:54:25.496Z,50.902416
2022-12-26T04:55:25.497Z,50.902386
2022-12-26T04:56:25.509Z,50.902412
2022-12-26T04:57:25.477Z,50.902401
2022-12-26T04:58:25.467Z,50.902401
2022-12-26T04:59:25.459Z,50.902405
2022-12-26T05:00:25.460Z,50.902412
2022-12-26T05:01:25.567Z,50.902386
2022-12-26T05:02:25.631Z,50.902412
2022-12-26T05:03:25.441Z,50.902416
2022-12-26T05:04:25.414Z,50.902374
2022-12-26T05:05:25.422Z,50.902409
2022-12-26T05:06:25.446Z,50.902390
2022-12-26T05:07:25.409Z,50.902431
2022-12-26T05:08:25.393Z,50.902424
2022-12-26T05:09:25.383Z,50.902374
2022-12-26T05:10:25.371Z,50.902405
2022-12-26T05:11:25.414Z,50.902405
2022-12-26T05:12:25.372Z,50.902393
2022-12-26T05:13:25.367Z,50.902405
2022-12-26T05:14:25.325Z,50.902424
2022-12-26T05:15:25.326Z,50.902416
2022-12-26T05:16:25.420Z,50.902390
2022-12-26T05:17:25.309Z,50.902390
2022-12-26T05:18:25.315Z,50.902401
2022-12-26T05:19:25.315Z,50.902409
2022-12-26T05:20:25.295Z,50.902401
2022-12-26T05:21:25.290Z,50.902374
2022-12-26T05:22:25.305Z,50.902374
2022-12-26T05:23:25.290Z,50.902401
2022-12-26T05:24:25.325Z,50.902359
2022-12-26T05:25:25.253Z,50.902393
2022-12-26T05:26:25.240Z,50.902378
2022-12-26T05:27:25.284Z,50.902393
2022-12-26T05:28:25.215Z,50.902409
2022-12-26T05:29:25.209Z,50.902382
2022-12-26T05:30:25.222Z,50.902435
2022-12-26T05:31:29.733Z,50.902374
2022-12-26T05:32:26.223Z,50.902435
2022-12-26T05:33:25.195Z,50.902424
2022-12-26T05:34:25.195Z,50.902401
2022-12-26T05:35:25.188Z,50.902405
2022-12-26T05:36:25.193Z,50.902405
2022-12-26T05:37:25.196Z,50.902420
2022-12-26T05:38:25.163Z,50.902428
2022-12-26T05:39:26.160Z,50.902401
2022-12-26T05:40:25.147Z,50.902374
2022-12-26T05:41:25.145Z,50.902397
2022-12-26T05:42:25.171Z,50.902416
2022-12-26T05:43:25.165Z,50.902439
2022-12-26T05:44:25.127Z,50.902416
2022-12-26T05:45:25.106Z,50.902439
2022-12-26T05:46:25.164Z,50.902451
2022-12-26T05:47:25.120Z,50.902428
2022-12-26T05:48:25.064Z,50.902428
2022-12-26T05:49:25.079Z,50.902367
2022-12-26T05:50:25.097Z,50.902435
2022-12-26T05:51:25.041Z,50.902420
2022-12-26T05:52:25.082Z,50.902420
2022-12-26T05:53:25.080Z,50.902405
2022-12-26T05:54:25.029Z,50.902393
2022-12-26T05:55:25.029Z,50.902412
2022-12-26T05:56:25.025Z,50.902405
2022-12-26T05:57:25.070Z,50.902409
2022-12-26T05:58:25.018Z,50.902424
2022-12-26T05:59:24.995Z,50.902412
2022-12-26T06:00:24.983Z,50.902431
2022-12-26T06:01:25.003Z,50.902420
2022-12-26T06:02:25.063Z,50.902405
2022-12-26T06:03:24.975Z,50.902401
2022-12-26T06:04:24.952Z,50.902382
2022-12-26T06:05:24.946Z,50.902393
2022-12-26T06:06:24.955Z,50.902405
2022-12-26T06:07:24.946Z,50.902412
2022-12-26T06:08:24.957Z,50.902420
2022-12-26T06:09:24.954Z,50.902431
2022-12-26T06:10:24.903Z,50.902397
2022-12-26T06:11:24.905Z,50.902412
2022-12-26T06:12:24.888Z,50.902397
2022-12-26T06:13:24.929Z,50.902386
2022-12-26T06:14:24.867Z,50.902397
2022-12-26T06:15:24.888Z,50.902393
2022-12-26T06:16:25.055Z,50.902378
2022-12-26T06:17:24.836Z,50.902405
2022-12-26T06:18:25.869Z,50.902439
2022-12-26T06:19:24.841Z,50.902424
2022-12-26T06:20:24.821Z,50.902370
2022-12-26T06:21:24.804Z,50.902374
2022-12-26T06:22:24.826Z,50.902424
2022-12-26T06:23:24.831Z,50.902416
2022-12-26T06:24:24.800Z,50.902428
2022-12-26T06:25:24.780Z,50.902458
2022-12-26T06:26:24.781Z,50.902470
2022-12-26T06:27:24.787Z,50.902431
2022-12-26T06:28:24.817Z,50.902344
2022-12-26T06:29:24.760Z,50.902370
2022-12-26T06:30:24.733Z,50.902390
2022-12-26T06:31:24.840Z,50.902424
2022-12-26T06:32:24.730Z,50.902420
2022-12-26T06:33:24.738Z,50.902428
2022-12-26T06:34:24.701Z,50.902431
2022-12-26T06:35:24.713Z,50.902435
2022-12-26T06:36:24.701Z,50.902420
2022-12-26T06:37:24.680Z,50.902378
2022-12-26T06:38:24.707Z,50.902367
2022-12-26T06:39:24.691Z,50.902382
2022-12-26T06:40:24.669Z,50.902424
2022-12-26T06:41:24.650Z,50.902363
2022-12-26T06:42:24.662Z,50.902374
2022-12-26T06:43:24.657Z,50.902374
2022-12-26T06:44:24.648Z,50.902409
2022-12-26T06:45:24.619Z,50.902363
2022-12-26T06:46:24.655Z,50.902386
2022-12-26T06:47:24.605Z,50.902386
2022-12-26T06:48:25.540Z,50.902374
2022-12-26T06:49:30.424Z,50.902401
2022-12-26T06:50:26.600Z,50.902386
2022-12-26T06:51:24.582Z,50.902393
2022-12-26T06:52:24.592Z,50.902393
2022-12-26T06:53:24.605Z,50.902374
2022-12-26T06:54:24.567Z,50.902397
2022-12-26T06:55:24.551Z,50.902409
2022-12-26T06:56:24.549Z,50.902397
2022-12-26T06:57:24.543Z,50.902374
2022-12-26T06:58:24.561Z,50.902370
2022-12-26T06:59:24.525Z,50.902367
2022-12-26T07:00:24.629Z,50.902390
2022-12-26T07:01:24.637Z,50.902386
2022-12-26T07:02:24.627Z,50.902378
2022-12-26T07:03:24.527Z,50.902412
2022-12-26T07:04:24.488Z,50.902382
2022-12-26T07:05:24.503Z,50.902401
2022-12-26T07:06:24.486Z,50.902355
2022-12-26T07:07:24.464Z,50.902393
2022-12-26T07:08:24.461Z,50.902439
2022-12-26T07:09:29.812Z,50.902405
2022-12-26T07:10:26.443Z,50.902390
2022-12-26T07:11:24.445Z,50.902367
2022-12-26T07:12:24.410Z,50.902393
2022-12-26T07:13:24.404Z,50.902416
2022-12-26T07:14:24.442Z,50.902409
2022-12-26T07:15:24.424Z,50.902397
2022-12-26T07:16:24.477Z,50.902390
2022-12-26T07:17:24.389Z,50.902428
2022-12-26T07:18:24.398Z,50.902390
2022-12-26T07:19:25.393Z,50.902401
2022-12-26T07:20:24.393Z,50.902393
2022-12-26T07:21:24.377Z,50.902416
2022-12-26T07:22:24.361Z,50.902424
2022-12-26T07:23:24.391Z,50.902401
2022-12-26T07:24:24.381Z,50.902405
2022-12-26T07:25:24.328Z,50.902420
2022-12-26T07:26:24.309Z,50.902443
2022-12-26T07:27:24.300Z,50.902424
2022-12-26T07:28:24.311Z,50.902420
2022-12-26T07:29:24.332Z,50.902431
2022-12-26T07:30:24.339Z,50.902428
2022-12-26T07:31:24.324Z,50.902420
2022-12-26T07:32:24.269Z,50.902420
2022-12-26T07:33:24.277Z,50.902416
2022-12-26T07:34:31.081Z,50.902405
2022-12-26T07:35:26.257Z,50.902477
2022-12-26T07:36:24.239Z,50.902409
2022-12-26T07:37:24.243Z,50.902477
2022-12-26T07:38:24.234Z,50.902336
2022-12-26T07:39:24.259Z,50.902428
2022-12-26T07:40:24.238Z,50.902348
2022-12-26T07:41:24.232Z,50.902401
2022-12-26T07:42:24.202Z,50.902428
2022-12-26T07:43:24.186Z,50.902435
2022-12-26T07:44:24.228Z,50.902443
2022-12-26T07:45:24.291Z,50.902447
2022-12-26T07:46:24.226Z,50.902447
2022-12-26T07:47:24.156Z,50.902431
2022-12-26T07:48:24.175Z,50.902431
2022-12-26T07:49:24.166Z,50.902489
2022-12-26T07:50:24.142Z,50.902420
2022-12-26T07:51:24.132Z,50.902485
2022-12-26T07:52:24.130Z,50.902462
2022-12-26T07:53:24.126Z,50.902443
2022-12-26T07:54:24.132Z,50.902470
2022-12-26T07:55:24.109Z,50.902443
2022-12-26T07:56:24.152Z,50.902466
2022-12-26T07:57:48.271Z,50.902405
2022-12-26T07:58:26.091Z,50.902405
2022-12-26T07:59:24.114Z,50.902485
2022-12-26T08:00:24.107Z,50.902496
2022-12-26T08:01:24.176Z,50.902401
2022-12-26T08:02:24.431Z,50.902462
2022-12-26T08:03:24.202Z,50.902542
2022-12-26T08:04:24.056Z,50.902531
2022-12-26T08:05:24.019Z,50.902454
2022-12-26T08:06:24.027Z,50.902458
2022-12-26T08:07:24.030Z,50.902470
2022-12-26T08:08:23.995Z,50.902405
2022-12-26T08:09:24.023Z,50.902489
2022-12-26T08:10:23.990Z,50.902512
2022-12-26T08:11:23.979Z,50.902477
2022-12-26T08:12:23.986Z,50.902527
2022-12-26T08:13:23.972Z,50.902527
2022-12-26T08:14:24.005Z,50.902458
2022-12-26T08:15:23.946Z,50.902416
2022-12-26T08:16:23.975Z,50.902370
2022-12-26T08:17:23.948Z,50.902447
2022-12-26T08:18:23.936Z,50.902416
2022-12-26T08:19:23.919Z,50.902386
2022-12-26T08:20:23.986Z,50.902374
2022-12-26T08:21:23.932Z,50.902382
2022-12-26T08:22:23.911Z,50.902420
2022-12-26T08:23:23.881Z,50.902412
2022-12-26T08:24:23.891Z,50.902382
2022-12-26T08:25:23.923Z,50.902397
2022-12-26T08:26:23.867Z,50.902462
2022-12-26T08:27:23.867Z,50.902416
2022-12-26T08:28:23.892Z,50.902466
2022-12-26T08:29:23.871Z,50.902405
2022-12-26T08:30:23.871Z,50.902390
2022-12-26T08:32:23.823Z,50.902466
2022-12-26T08:33:23.799Z,50.902443
2022-12-26T08:34:23.819Z,50.902424
2022-12-26T08:35:23.852Z,50.902431
2022-12-26T08:36:23.793Z,50.902462
2022-12-26T08:37:23.805Z,50.902470
2022-12-26T08:38:27.209Z,50.902458
2022-12-26T08:39:24.766Z,50.902462
2022-12-26T08:40:41.894Z,50.902477
2022-12-26T08:41:25.753Z,50.902462
2022-12-26T08:42:23.742Z,50.902473
2022-12-26T08:44:23.557Z,50.902500
2022-12-26T08:44:27.541Z,50.902466
2022-12-26T08:45:24.741Z,50.902451
2022-12-26T08:46:23.717Z,50.902485
2022-12-26T08:47:23.698Z,50.902477
2022-12-26T08:48:23.697Z,50.902462
2022-12-26T08:49:23.707Z,50.902485
2022-12-26T08:50:23.711Z,50.902447
2022-12-26T08:51:23.681Z,50.902451
2022-12-26T08:52:23.654Z,50.902473
2022-12-26T08:53:23.665Z,50.902466
2022-12-26T08:54:23.643Z,50.902512
2022-12-26T08:55:23.669Z,50.902481
2022-12-26T08:56:23.638Z,50.902489
2022-12-26T08:57:23.620Z,50.902485
2022-12-26T08:58:23.641Z,50.902477
2022-12-26T08:59:23.609Z,50.902458
2022-12-26T09:00:23.826Z,50.902466
2022-12-26T09:01:23.708Z,50.902477
2022-12-26T09:02:23.705Z,50.902489
2022-12-26T09:03:23.628Z,50.902466
2022-12-26T09:04:23.570Z,50.902454
2022-12-26T09:05:23.597Z,50.902462
2022-12-26T09:06:23.577Z,50.902443
2022-12-26T09:07:23.537Z,50.902439
2022-12-26T09:08:23.538Z,50.902439
2022-12-26T09:09:23.545Z,50.902431
2022-12-26T09:10:23.564Z,50.902416
2022-12-26T09:11:23.527Z,50.902424
2022-12-26T09:12:23.494Z,50.902424
2022-12-26T09:13:23.501Z,50.902412
2022-12-26T09:14:23.480Z,50.902409
2022-12-26T09:15:23.498Z,50.902412
2022-12-26T09:16:23.542Z,50.902424
2022-12-26T09:17:23.519Z,50.902447
2022-12-26T09:18:23.459Z,50.902420
2022-12-26T09:19:23.499Z,50.902431
2022-12-26T09:20:23.464Z,50.902435
2022-12-26T09:21:23.500Z,50.902443
2022-12-26T09:22:23.449Z,50.902443
2022-12-26T09:23:23.420Z,50.902424
2022-12-26T09:24:23.421Z,50.902466
2022-12-26T09:25:23.417Z,50.902447
2022-12-26T09:26:23.422Z,50.902431
2022-12-26T09:27:23.377Z,50.902454
2022-12-26T09:28:24.400Z,50.902443
2022-12-26T09:29:23.380Z,50.902447
2022-12-26T09:30:23.477Z,50.902454
2022-12-26T09:31:23.469Z,50.902447
2022-12-26T09:32:23.375Z,50.902447
2022-12-26T09:33:23.363Z,50.902420
2022-12-26T09:34:23.348Z,50.902447
2022-12-26T09:35:23.336Z,50.902420
2022-12-26T09:36:23.355Z,50.902412
2022-12-26T09:37:23.362Z,50.902409
2022-12-26T09:38:23.310Z,50.902428
2022-12-26T09:39:23.299Z,50.902416
2022-12-26T09:40:23.332Z,50.902401
2022-12-26T09:41:23.316Z,50.902420
2022-12-26T09:42:23.289Z,50.902443
2022-12-26T09:43:23.284Z,50.902439
2022-12-26T09:44:23.269Z,50.902420
2022-12-26T09:45:23.276Z,50.902420
2022-12-26T09:46:23.404Z,50.902428
2022-12-26T09:47:23.260Z,50.902424
2022-12-26T09:48:23.244Z,50.902412
2022-12-26T09:49:23.232Z,50.902424
2022-12-26T09:50:23.298Z,50.902431
2022-12-26T09:51:23.243Z,50.902416
2022-12-26T09:52:24.196Z,50.902451
2022-12-26T09:53:23.231Z,50.902435
2022-12-26T09:54:23.196Z,50.902458
2022-12-26T09:55:23.183Z,50.902420
2022-12-26T09:57:25.180Z,50.902424
2022-12-26T09:58:23.165Z,50.902428
2022-12-26T09:59:23.173Z,50.902420
2022-12-26T10:00:23.146Z,50.902393
2022-12-26T10:01:57.045Z,50.902420
2022-12-26T10:02:23.212Z,50.902390
2022-12-26T10:03:23.104Z,50.902393
2022-12-26T10:04:28.393Z,50.902386
2022-12-26T10:05:25.105Z,50.902390
2022-12-26T10:06:23.152Z,50.902393
2022-12-26T10:07:23.086Z,50.902393
2022-12-26T10:08:23.063Z,50.902378
2022-12-26T10:09:23.063Z,50.902374
2022-12-26T10:10:23.052Z,50.902443
2022-12-26T10:11:23.161Z,50.902416
2022-12-26T10:12:23.035Z,50.902397
2022-12-26T10:13:23.023Z,50.902412
2022-12-26T10:14:23.061Z,50.902390
2022-12-26T10:15:23.014Z,50.902370
2022-12-26T10:16:23.074Z,50.902447
2022-12-26T10:17:22.996Z,50.902431
2022-12-26T10:18:22.989Z,50.902409
2022-12-26T10:19:26.133Z,50.902424
2022-12-26T10:20:23.962Z,50.902393
2022-12-26T10:21:22.962Z,50.902401
2022-12-26T10:22:23.155Z,50.902378
2022-12-26T10:23:22.948Z,50.902412
2022-12-26T10:24:22.937Z,50.902428
2022-12-26T10:25:22.962Z,50.902412
2022-12-26T10:26:22.932Z,50.902409
2022-12-26T10:27:23.202Z,50.902370
2022-12-26T10:28:22.907Z,50.902428
2022-12-26T10:29:22.915Z,50.902420
2022-12-26T10:30:22.905Z,50.902374
2022-12-26T10:31:22.934Z,50.902367
2022-12-26T10:32:27.704Z,50.902363
2022-12-26T10:33:24.867Z,50.902397
2022-12-26T10:34:22.864Z,50.902405
2022-12-26T10:35:22.848Z,50.902390
2022-12-26T10:36:22.842Z,50.902428
2022-12-26T10:37:22.866Z,50.902412
2022-12-26T10:38:27.467Z,50.902409
2022-12-26T10:39:24.819Z,50.902401
2022-12-26T10:40:22.812Z,50.902401
2022-12-26T10:41:22.805Z,50.902401
2022-12-26T10:42:22.828Z,50.902401
2022-12-26T10:43:22.933Z,50.902401
2022-12-26T10:44:27.670Z,50.902390
2022-12-26T10:45:24.769Z,50.902393
2022-12-26T10:46:22.795Z,50.902416
2022-12-26T10:47:22.783Z,50.902451
2022-12-26T10:48:22.760Z,50.902405
2022-12-26T10:49:22.750Z,50.902374
2022-12-26T10:50:27.180Z,50.902378
2022-12-26T10:51:24.730Z,50.902397
2022-12-26T10:52:22.819Z,50.902405
2022-12-26T10:53:22.754Z,50.902374
2022-12-26T10:54:22.723Z,50.902412
2022-12-26T10:55:29.302Z,50.902390
2022-12-26T10:56:23.758Z,50.902401
2022-12-26T10:57:22.706Z,50.902420
2022-12-26T10:58:22.683Z,50.902416
2022-12-26T10:59:22.709Z,50.902370
2022-12-26T11:00:22.673Z,50.902390
2022-12-26T11:01:22.735Z,50.902386
2022-12-26T11:02:22.989Z,50.902409
2022-12-26T11:03:22.722Z,50.902386
2022-12-26T11:04:44.451Z,50.902378
2022-12-26T11:05:56.904Z,50.902344
2022-12-26T11:06:24.618Z,50.902378
2022-12-26T11:07:22.652Z,50.902363
2022-12-26T11:08:22.713Z,50.902363
2022-12-26T11:09:22.673Z,50.902573
2022-12-26T11:10:22.600Z,50.902378
2022-12-26T11:11:22.592Z,50.902351
2022-12-26T11:12:22.630Z,50.902397
2022-12-26T11:13:22.567Z,50.902348
2022-12-26T11:14:22.565Z,50.902355
2022-12-26T11:15:22.560Z,50.902344
2022-12-26T11:16:22.607Z,50.902325
2022-12-26T11:17:22.543Z,50.902378
2022-12-26T11:18:22.564Z,50.902245
2022-12-26T11:19:22.526Z,50.902313
2022-12-26T11:20:22.515Z,50.902351
2022-12-26T11:21:22.519Z,50.902287
2022-12-26T11:22:22.505Z,50.902328
2022-12-26T11:23:22.704Z,50.902325
2022-12-26T11:24:22.523Z,50.902351
2022-12-26T11:25:22.482Z,50.902363
2022-12-26T11:26:22.508Z,50.902328